Time;durP1;ratioP1;P1;durP2;ratioP2;P2;SDS_P1;SDS_P2;PMS_P1;PMS_P2;Temp;Humidity;BMP_temperature;BMP_pressure;BME280_temperature;BME280_humidity;BME280_pressure;Samples;Min_cycle;Max_cycle;Signal;HPM_P1;HPM_P2
2022/05/26 00:00:18;;;;;;;1.40;0.70;;;;;;;18.61;47.34;100920.47;4908649;29;21009;-70
2022/05/26 00:02:47;;;;;;;2.37;0.73;;;;;;;18.52;47.61;100922.41;4905661;29;20654;-70
2022/05/26 00:05:15;;;;;;;4.37;1.00;;;;;;;18.48;47.67;100918.44;4906759;29;20231;-70
2022/05/26 00:07:42;;;;;;;1.03;0.50;;;;;;;18.51;47.74;100925.28;4905100;29;20231;-70
2022/05/26 00:10:13;;;;;;;3.60;0.80;;;;;;;18.51;47.76;100926.13;4906599;29;20299;-70
2022/05/26 00:12:44;;;;;;;1.13;0.73;;;;;;;18.51;47.97;100925.28;4908631;29;20209;-70
2022/05/26 00:15:14;;;;;;;2.50;0.70;;;;;;;18.45;47.77;100924.19;4909155;29;20240;-70
2022/05/26 00:17:43;;;;;;;2.67;0.50;;;;;;;18.42;47.91;100917.34;4909818;29;20663;-69
2022/05/26 00:20:13;;;;;;;1.37;0.70;;;;;;;18.45;47.57;100926.06;4908558;29;20311;-69
2022/05/26 00:22:40;;;;;;;5.87;0.80;;;;;;;18.35;48.38;100920.97;4908993;29;20219;-69
2022/05/26 00:25:09;;;;;;;1.80;0.43;;;;;;;18.35;48.25;100923.66;4910048;29;20670;-69
2022/05/26 00:27:37;;;;;;;2.03;0.60;;;;;;;18.39;48.16;100924.94;4909485;29;20698;-70
2022/05/26 00:30:06;;;;;;;2.70;0.67;;;;;;;18.38;48.21;100920.59;4910400;29;20262;-70
2022/05/26 00:32:34;;;;;;;3.80;1.03;;;;;;;18.47;48.09;100929.38;4908463;29;20223;-69
2022/05/26 00:35:04;;;;;;;4.10;0.70;;;;;;;18.41;47.77;100926.41;4908200;29;20716;-70
2022/05/26 00:37:34;;;;;;;3.90;0.63;;;;;;;18.33;48.34;100923.84;4910829;29;20570;-69
2022/05/26 00:40:03;;;;;;;3.43;0.63;;;;;;;18.26;48.28;100936.34;4912613;29;20307;-69
2022/05/26 00:42:30;;;;;;;2.30;0.60;;;;;;;18.24;48.31;100935.69;4909267;29;20209;-69
2022/05/26 00:44:58;;;;;;;8.07;1.00;;;;;;;18.29;48.16;100933.31;4907587;29;20205;-70
2022/05/26 00:47:31;;;;;;;5.73;0.87;;;;;;;18.21;48.40;100936.06;4909387;29;20216;-69
2022/05/26 00:50:02;;;;;;;5.23;0.67;;;;;;;18.24;48.22;100934.88;4908001;29;20223;-70
2022/05/26 00:52:34;;;;;;;3.70;0.67;;;;;;;18.23;48.25;100942.06;4910062;29;20343;-70
2022/05/26 00:55:08;;;;;;;3.33;0.50;;;;;;;18.18;48.19;100936.44;4911191;29;20268;-70
2022/05/26 00:57:38;;;;;;;4.43;0.90;;;;;;;18.23;48.08;100941.25;4906501;29;20233;-69
2022/05/26 01:00:09;;;;;;;3.23;0.90;;;;;;;18.15;48.48;100938.66;4909388;29;20649;-69
2022/05/26 01:02:39;;;;;;;5.33;0.77;;;;;;;18.15;48.43;100933.28;4905013;29;20498;-69
2022/05/26 01:05:12;;;;;;;2.63;0.70;;;;;;;18.13;48.65;100944.22;4909664;29;20213;-70
2022/05/26 01:07:42;;;;;;;4.20;0.63;;;;;;;18.04;48.97;100937.28;4909659;29;20272;-70
2022/05/26 01:10:12;;;;;;;3.77;0.67;;;;;;;18.07;49.09;100936.91;4907819;29;20217;-70
2022/05/26 01:12:40;;;;;;;4.70;0.87;;;;;;;18.05;48.84;100938.94;4905121;29;20212;-70
2022/05/26 01:15:11;;;;;;;1.73;0.73;;;;;;;18.07;49.08;100939.59;4910597;29;20276;-69
2022/05/26 01:17:48;;;;;;;2.63;0.73;;;;;;;17.91;49.48;100940.63;4907534;29;20231;-69
2022/05/26 01:20:25;;;;;;;2.27;0.60;;;;;;;17.93;49.43;100932.38;4908609;29;20295;-69
2022/05/26 01:23:38;;;;;;;1.40;0.60;;;;;;;17.91;49.57;100929.06;4906545;29;20645;-69
2022/05/26 01:26:29;;;;;;;3.30;0.87;;;;;;;17.91;49.27;100937.94;4895517;29;20328;-69
2022/05/26 01:29:29;;;;;;;1.03;0.37;;;;;;;17.97;48.58;100930.97;4909669;29;20788;-69
2022/05/26 01:32:04;;;;;;;1.00;0.43;;;;;;;17.91;49.26;100926.38;4907539;29;20575;-69
2022/05/26 01:34:42;;;;;;;3.97;0.73;;;;;;;17.92;48.84;100930.72;4908443;29;20268;-69
2022/05/26 01:37:20;;;;;;;3.67;0.70;;;;;;;17.96;48.59;100932.00;4906462;29;20205;-69
2022/05/26 01:40:03;;;;;;;1.23;0.60;;;;;;;18.06;48.06;100932.56;4905688;29;20217;-69
2022/05/26 01:42:48;;;;;;;3.57;0.50;;;;;;;18.11;48.20;100929.34;4904555;29;20335;-69
2022/05/26 01:45:24;;;;;;;2.50;0.50;;;;;;;18.12;48.13;100933.69;4906572;29;20208;-69
2022/05/26 01:48:02;;;;;;;3.20;0.70;;;;;;;18.15;47.85;100930.59;4906966;29;20208;-69
2022/05/26 01:50:39;;;;;;;2.33;0.63;;;;;;;18.11;47.91;100923.97;4908197;29;20320;-69
2022/05/26 01:53:17;;;;;;;1.80;0.60;;;;;;;18.09;48.26;100926.84;4905294;29;20415;-69
2022/05/26 01:55:51;;;;;;;2.10;0.60;;;;;;;18.09;47.84;100926.84;4907176;29;20229;-68
2022/05/26 01:58:33;;;;;;;1.27;0.60;;;;;;;18.06;47.95;100927.19;4907165;29;20335;-69
2022/05/26 02:01:05;;;;;;;1.67;0.60;;;;;;;18.10;48.00;100933.88;4910464;29;20311;-68
2022/05/26 02:03:39;;;;;;;1.30;0.50;;;;;;;18.12;47.73;100934.50;4904144;29;20977;-69
2022/05/26 02:06:17;;;;;;;0.97;0.50;;;;;;;18.02;48.19;100933.97;4908137;29;20300;-69
2022/05/26 02:08:54;;;;;;;2.57;0.63;;;;;;;18.08;48.19;100940.44;4909959;29;20207;-69
2022/05/26 02:11:26;;;;;;;1.23;0.60;;;;;;;17.96;48.58;100940.88;4911634;29;20223;-69
2022/05/26 02:14:02;;;;;;;1.43;0.50;;;;;;;18.00;48.64;100936.81;4906904;29;20272;-69
2022/05/26 02:16:48;;;;;;;2.67;0.90;;;;;;;17.96;48.95;100946.25;4908866;29;20227;-69
2022/05/26 02:19:30;;;;;;;4.47;0.73;;;;;;;18.00;48.84;100944.03;4910843;29;20208;-69
2022/05/26 02:22:06;;;;;;;2.83;0.60;;;;;;;17.92;49.12;100933.41;4907674;29;20254;-70
2022/05/26 02:24:39;;;;;;;4.50;1.10;;;;;;;17.96;48.99;100926.63;4910231;29;20219;-69
2022/05/26 02:27:10;;;;;;;1.83;0.63;;;;;;;17.95;49.06;100930.34;4908675;29;20673;-68
2022/05/26 02:29:52;;;;;;;3.10;1.10;;;;;;;17.86;48.86;100931.44;4913007;29;20251;-68
2022/05/26 02:32:27;;;;;;;1.40;0.73;;;;;;;17.79;49.53;100931.34;4912281;29;20241;-69
2022/05/26 02:34:59;;;;;;;2.50;0.67;;;;;;;17.72;49.95;100926.91;4909359;29;20224;-69
2022/05/26 02:37:28;;;;;;;2.33;0.70;;;;;;;17.66;50.01;100929.31;4910489;29;20212;-68
2022/05/26 02:39:55;;;;;;;2.80;0.63;;;;;;;17.64;49.67;100925.97;4910361;29;20320;-68
2022/05/26 02:42:25;;;;;;;3.90;0.67;;;;;;;17.60;50.19;100919.25;4912284;29;20300;-69
2022/05/26 02:44:53;;;;;;;2.50;0.77;;;;;;;17.55;50.47;100924.34;4909235;29;20512;-68
2022/05/26 02:47:37;;;;;;;3.00;0.90;;;;;;;17.55;50.56;100935.09;4910753;29;20209;-68
2022/05/26 02:50:35;;;;;;;3.33;0.60;;;;;;;17.54;50.47;100949.50;4910121;29;20227;-69
2022/05/26 02:53:11;;;;;;;3.80;0.50;;;;;;;17.54;50.67;100938.78;4911160;29;20223;-69
2022/05/26 02:55:53;;;;;;;2.00;0.50;;;;;;;17.58;50.37;100945.47;4909368;29;20232;-69
2022/05/26 02:58:33;;;;;;;3.60;0.60;;;;;;;17.56;50.74;100947.47;4912875;29;20224;-68
2022/05/26 03:01:08;;;;;;;2.30;0.60;;;;;;;17.59;50.92;100957.81;4912427;29;20225;-69
2022/05/26 03:03:40;;;;;;;3.70;0.70;;;;;;;17.57;51.08;100954.50;4911633;29;20315;-69
2022/05/26 03:06:15;;;;;;;2.23;0.70;;;;;;;17.61;50.98;100946.91;4912972;29;20594;-70
2022/05/26 03:08:44;;;;;;;2.30;0.70;;;;;;;17.59;51.02;100952.47;4910449;29;20209;-70
2022/05/26 03:11:17;;;;;;;1.93;0.60;;;;;;;17.52;50.88;100958.72;4909665;29;20624;-70
2022/05/26 03:13:44;;;;;;;2.83;0.63;;;;;;;17.54;51.04;100960.22;4909204;29;20209;-70
2022/05/26 03:16:12;;;;;;;3.50;0.73;;;;;;;17.62;50.81;100957.50;4911902;29;20233;-69
2022/05/26 03:18:40;;;;;;;4.17;0.63;;;;;;;17.58;51.45;100953.50;4907621;29;20228;-69
2022/05/26 03:21:10;;;;;;;2.00;0.70;;;;;;;17.59;51.00;100959.69;4910767;29;20223;-70
2022/05/26 03:23:39;;;;;;;3.60;0.77;;;;;;;17.51;51.72;100957.06;4911003;29;20303;-69
2022/05/26 03:26:08;;;;;;;2.23;0.60;;;;;;;17.55;51.35;100959.22;4910702;29;20240;-69
2022/05/26 03:28:38;;;;;;;2.17;0.50;;;;;;;17.56;51.67;100957.38;4909959;29;20267;-70
2022/05/26 03:31:09;;;;;;;3.50;0.87;;;;;;;17.59;51.61;100963.19;4909000;29;20569;-70
2022/05/26 03:42:10;;;;;;;3.53;0.67;;;;;;;17.58;51.64;100966.91;4907818;29;20212;-69
2022/05/26 03:44:39;;;;;;;4.43;0.70;;;;;;;17.55;51.92;100971.78;4914234;29;20220;-68
2022/05/26 03:47:07;;;;;;;2.37;0.70;;;;;;;17.40;52.60;100971.75;4910059;29;20331;-70
2022/05/26 03:49:35;;;;;;;3.63;0.70;;;;;;;17.38;52.54;100976.47;4910832;29;20253;-70
2022/05/26 03:52:05;;;;;;;4.53;0.80;;;;;;;17.42;52.25;100977.75;4911404;29;20292;-69
2022/05/26 03:54:33;;;;;;;3.57;0.70;;;;;;;17.42;52.46;100983.09;4910342;29;20686;-69
2022/05/26 03:57:06;;;;;;;3.17;0.70;;;;;;;17.42;52.73;100987.63;4910165;29;20737;-69
2022/05/26 03:59:40;;;;;;;2.87;0.80;;;;;;;17.42;52.35;100995.69;4910081;29;20651;-69
2022/05/26 04:02:08;;;;;;;1.70;0.60;;;;;;;17.46;52.41;100994.31;4905517;29;20213;-69
2022/05/26 04:04:36;;;;;;;2.43;0.80;;;;;;;17.41;53.10;100994.88;4909784;29;20312;-69
2022/05/26 04:07:05;;;;;;;2.63;0.63;;;;;;;17.34;53.42;101001.94;4909207;29;20290;-69
2022/05/26 04:09:35;;;;;;;3.10;0.80;;;;;;;17.39;53.47;101015.66;4907521;29;20685;-69
2022/05/26 04:12:13;;;;;;;4.20;0.90;;;;;;;17.46;53.51;101016.59;4908271;29;20216;-69
2022/05/26 04:14:41;;;;;;;4.93;0.97;;;;;;;17.59;52.93;101019.50;4910644;29;20216;-69
2022/05/26 04:17:10;;;;;;;2.70;0.73;;;;;;;17.63;52.83;101018.16;4907360;29;20232;-69
2022/05/26 04:19:41;;;;;;;2.30;0.80;;;;;;;17.75;53.02;101017.75;4911214;29;22008;-68
2022/05/26 04:22:18;;;;;;;4.63;0.70;;;;;;;17.83;53.01;101023.03;4910295;29;20205;-68
2022/05/26 04:24:49;;;;;;;4.63;0.87;;;;;;;17.85;52.72;101023.69;4904988;29;20245;-69
2022/05/26 04:27:20;;;;;;;3.23;0.73;;;;;;;17.88;52.84;101021.47;4905974;29;20305;-69
2022/05/26 04:29:48;;;;;;;1.73;0.50;;;;;;;17.90;53.11;101015.91;4893636;29;20241;-69
2022/05/26 04:32:17;;;;;;;2.40;0.70;;;;;;;17.89;52.75;101023.13;4889174;29;20216;-69
2022/05/26 04:34:48;;;;;;;2.73;0.87;;;;;;;17.96;53.30;101025.91;4889955;29;20248;-69
2022/05/26 04:37:19;;;;;;;1.87;0.60;;;;;;;17.93;53.17;101023.63;4892424;29;20333;-69
2022/05/26 04:39:47;;;;;;;4.20;0.50;;;;;;;17.93;53.54;101028.97;4890823;29;20213;-68
2022/05/26 04:42:15;;;;;;;2.43;0.70;;;;;;;17.96;53.22;101033.97;4881396;29;20218;-70
2022/05/26 04:44:45;;;;;;;1.93;0.70;;;;;;;17.94;53.63;101026.09;4883365;29;20238;-69
2022/05/26 04:47:14;;;;;;;2.03;0.73;;;;;;;17.96;53.57;101029.44;4887228;29;20213;-69
2022/05/26 04:49:42;;;;;;;3.10;0.73;;;;;;;17.98;54.02;101031.94;4889232;29;20296;-70
2022/05/26 04:52:15;;;;;;;2.57;0.73;;;;;;;18.01;53.53;101034.25;4894537;29;20215;-69
2022/05/26 04:54:45;;;;;;;5.73;1.07;;;;;;;18.01;54.09;101042.31;4888045;29;20230;-70
2022/05/26 04:57:14;;;;;;;5.03;1.00;;;;;;;18.00;53.89;101041.47;4886952;29;20237;-69
2022/05/26 04:59:42;;;;;;;4.90;1.23;;;;;;;17.99;54.29;101036.28;4879912;29;20221;-69
2022/05/26 05:02:12;;;;;;;2.80;1.10;;;;;;;18.00;54.25;101044.16;4886818;29;20770;-69
2022/05/26 05:04:44;;;;;;;3.63;0.80;;;;;;;18.05;54.35;101048.97;4889195;29;20285;-69
2022/05/26 05:07:12;;;;;;;2.83;0.77;;;;;;;18.09;54.29;101049.44;4890266;29;20675;-69
2022/05/26 05:09:41;;;;;;;1.77;0.60;;;;;;;18.10;53.94;101053.81;4882873;29;20667;-69
2022/05/26 05:12:13;;;;;;;2.23;0.60;;;;;;;18.11;54.18;101053.63;4886546;29;20214;-69
2022/05/26 05:14:44;;;;;;;1.43;0.60;;;;;;;18.12;54.35;101060.63;4887852;29;20708;-69
2022/05/26 05:17:13;;;;;;;3.93;0.73;;;;;;;18.14;54.32;101063.13;4885741;29;20228;-69
2022/05/26 05:19:41;;;;;;;3.97;0.80;;;;;;;18.10;54.32;101061.84;4889736;29;20210;-69
2022/05/26 05:22:16;;;;;;;3.57;0.70;;;;;;;18.15;54.44;101070.19;4884619;29;20673;-69
2022/05/26 05:24:48;;;;;;;2.80;0.70;;;;;;;18.25;54.65;101074.28;4889264;29;20215;-68
2022/05/26 05:27:22;;;;;;;2.07;0.83;;;;;;;18.23;55.13;101075.47;4886145;29;20212;-68
2022/05/26 05:29:53;;;;;;;4.07;1.30;;;;;;;18.21;55.06;101081.00;4901249;29;20777;-68
2022/05/26 05:32:27;;;;;;;6.07;1.00;;;;;;;18.25;55.38;101089.53;4907558;29;20227;-68
2022/05/26 05:35:05;;;;;;;1.80;0.80;;;;;;;18.33;55.21;101087.59;4909496;29;20267;-68
2022/05/26 05:37:34;;;;;;;3.30;1.07;;;;;;;18.29;55.19;101093.53;4909292;29;20228;-68
2022/05/26 05:40:02;;;;;;;2.80;0.67;;;;;;;18.30;55.11;101090.66;4908740;29;20627;-68
2022/05/26 05:42:44;;;;;;;5.10;0.90;;;;;;;18.40;55.33;101093.91;4909896;29;20299;-68
2022/05/26 05:45:12;;;;;;;3.80;0.97;;;;;;;18.39;55.43;101100.28;4909937;29;20232;-68
2022/05/26 05:47:40;;;;;;;3.23;1.30;;;;;;;18.50;54.81;101090.94;4912725;29;20239;-70
2022/05/26 05:50:08;;;;;;;1.27;0.60;;;;;;;18.51;55.73;101103.38;4912398;29;20296;-68
2022/05/26 05:52:36;;;;;;;1.77;0.80;;;;;;;18.51;55.85;101097.16;4912242;29;20221;-68
2022/05/26 05:55:05;;;;;;;3.43;0.80;;;;;;;18.56;55.61;101094.78;4910119;29;20772;-68
2022/05/26 05:57:37;;;;;;;3.57;1.37;;;;;;;18.61;55.49;101092.38;4914101;29;21259;-68
2022/05/26 06:00:07;;;;;;;5.97;1.00;;;;;;;18.60;55.33;101106.81;4911699;29;20231;-68
2022/05/26 06:02:35;;;;;;;3.17;1.00;;;;;;;18.63;55.17;101106.47;4915871;29;20221;-69
2022/05/26 06:05:05;;;;;;;3.33;0.97;;;;;;;18.69;55.13;101105.72;4914449;29;20569;-69
2022/05/26 06:07:34;;;;;;;2.67;0.63;;;;;;;18.72;54.79;101110.72;4912236;29;20347;-69
2022/05/26 06:10:04;;;;;;;2.20;0.70;;;;;;;18.75;54.72;101116.53;4912544;29;20213;-69
2022/05/26 06:12:32;;;;;;;3.07;0.87;;;;;;;18.76;55.04;101122.75;4909976;29;20240;-68
2022/05/26 06:15:01;;;;;;;2.43;0.70;;;;;;;18.80;54.90;101116.00;4910078;29;20219;-68
2022/05/26 06:17:28;;;;;;;3.73;1.10;;;;;;;18.84;55.58;101122.66;4908042;29;20324;-68
2022/05/26 06:19:56;;;;;;;3.20;1.00;;;;;;;18.80;55.72;101126.75;4912244;29;20300;-68
2022/05/26 06:22:24;;;;;;;2.83;0.93;;;;;;;18.83;55.35;101130.91;4911170;29;20223;-68
2022/05/26 06:24:52;;;;;;;2.40;0.60;;;;;;;18.82;55.56;101122.03;4914463;29;20213;-68
2022/05/26 06:30:26;;;;;;;4.50;0.83;;;;;;;18.79;55.28;101128.59;4838390;29;20319;-68
2022/05/26 06:38:27;;;;;;;1.93;0.70;;;;;;;18.88;55.31;101132.03;4888583;29;20232;-68
2022/05/26 06:42:05;;;;;;;4.33;0.70;;;;;;;18.90;55.48;101135.38;4895139;29;20448;-67
2022/05/26 06:43:44;;;;;;;3.70;0.80;;;;;;;18.97;55.47;101138.97;4893192;29;21681;-68
2022/05/26 06:46:13;;;;;;;2.93;0.70;;;;;;;18.99;55.40;101150.38;4898754;29;20209;-68
2022/05/26 06:48:41;;;;;;;3.27;1.17;;;;;;;19.05;54.98;101152.31;4893886;29;20323;-68
2022/05/26 06:51:09;;;;;;;4.30;1.00;;;;;;;19.09;54.58;101158.97;4897632;29;20657;-68
2022/05/26 06:53:38;;;;;;;3.93;0.97;;;;;;;19.12;55.04;101153.22;4892379;29;20315;-67
2022/05/26 06:56:06;;;;;;;1.77;0.60;;;;;;;19.20;54.66;101159.50;4889123;29;20218;-67
2022/05/26 06:58:34;;;;;;;2.53;0.90;;;;;;;19.15;55.16;101157.41;4893978;29;20233;-69
2022/05/26 07:01:02;;;;;;;3.70;0.83;;;;;;;19.18;54.97;101160.53;4894474;29;20217;-69
2022/05/26 07:03:32;;;;;;;1.97;0.70;;;;;;;19.26;55.27;101161.47;4889129;29;20945;-69
2022/05/26 07:06:00;;;;;;;4.30;1.03;;;;;;;19.23;55.07;101159.97;4892196;29;20231;-69
2022/05/26 07:08:28;;;;;;;4.17;1.33;;;;;;;19.31;54.61;101164.41;4890000;29;20313;-69
2022/05/26 07:11:00;;;;;;;2.70;0.70;;;;;;;19.37;54.66;101169.03;4894348;29;20214;-68
2022/05/26 07:13:29;;;;;;;5.23;0.80;;;;;;;19.36;55.14;101167.38;4893837;29;20211;-68
2022/05/26 07:15:57;;;;;;;3.53;0.97;;;;;;;19.41;54.42;101175.72;4896785;29;20259;-68
2022/05/26 07:18:27;;;;;;;4.50;0.90;;;;;;;19.44;54.32;101175.31;4887983;29;20222;-69
2022/05/26 07:20:56;;;;;;;3.87;1.23;;;;;;;19.48;54.16;101179.34;4890762;29;20231;-69
2022/05/26 07:23:24;;;;;;;3.47;0.73;;;;;;;19.45;54.23;101182.38;4888550;29;20631;-69
2022/05/26 07:25:52;;;;;;;4.00;2.00;;;;;;;19.47;53.93;101181.19;4893074;29;20214;-69
2022/05/26 07:28:19;;;;;;;3.73;0.80;;;;;;;19.48;54.22;101193.63;4892447;29;20245;-69
2022/05/26 07:30:47;;;;;;;2.47;0.80;;;;;;;19.50;54.25;101188.06;4889617;29;21333;-68
2022/05/26 07:33:15;;;;;;;2.80;0.77;;;;;;;19.48;54.10;101190.09;4893262;29;20304;-68
2022/05/26 07:35:44;;;;;;;2.63;0.63;;;;;;;19.46;54.23;101184.88;4888018;29;20210;-69
2022/05/26 07:41:18;;;;;;;2.93;0.90;;;;;;;19.42;54.11;101188.16;4892200;29;20222;-69
2022/05/26 07:43:49;;;;;;;2.87;0.67;;;;;;;19.42;54.39;101193.53;4891892;29;20215;-68
2022/05/26 07:46:20;;;;;;;2.30;0.70;;;;;;;19.42;54.52;101196.22;4889309;29;20446;-68
2022/05/26 07:48:49;;;;;;;3.43;1.00;;;;;;;19.45;54.62;101199.34;4887213;29;20261;-68
2022/05/26 07:51:19;;;;;;;4.47;0.80;;;;;;;19.48;54.19;101198.19;4888817;29;20245;-68
2022/05/26 07:53:50;;;;;;;1.93;0.73;;;;;;;19.52;54.15;101197.63;4889958;29;20220;-68
2022/05/26 07:56:21;;;;;;;2.47;0.57;;;;;;;19.52;54.12;101202.16;4896893;29;20216;-68
2022/05/26 07:58:53;;;;;;;1.83;0.60;;;;;;;19.54;54.21;101202.78;4892907;29;20241;-69
2022/05/26 08:01:21;;;;;;;1.77;0.60;;;;;;;19.57;53.61;101202.44;4888575;29;20304;-68
2022/05/26 08:03:53;;;;;;;3.93;0.67;;;;;;;19.54;54.16;101213.56;4889081;29;20259;-68
2022/05/26 08:06:22;;;;;;;2.10;0.70;;;;;;;19.53;54.43;101214.56;4887502;29;20214;-68
2022/05/26 08:08:51;;;;;;;3.17;0.70;;;;;;;19.49;53.85;101210.59;4889454;29;20229;-69
2022/05/26 08:11:19;;;;;;;2.93;0.60;;;;;;;19.51;53.98;101213.94;4891213;29;20309;-69
2022/05/26 08:13:47;;;;;;;1.50;0.50;;;;;;;19.46;54.04;101219.00;4890702;29;20671;-68
2022/05/26 08:16:15;;;;;;;5.13;0.90;;;;;;;19.48;54.14;101225.06;4890975;29;20292;-68
2022/05/26 08:18:43;;;;;;;3.77;0.70;;;;;;;19.47;54.84;101223.38;4890194;29;20638;-69
2022/05/26 08:21:12;;;;;;;2.33;0.87;;;;;;;19.48;54.68;101220.53;4890413;29;20207;-68
2022/05/26 08:23:40;;;;;;;1.83;0.70;;;;;;;19.45;54.77;101220.03;4891322;29;20584;-68
2022/05/26 08:26:09;;;;;;;3.17;0.60;;;;;;;19.42;54.86;101225.81;4889533;29;20238;-68
2022/05/26 08:28:38;;;;;;;3.37;1.07;;;;;;;19.41;54.66;101235.72;4894374;29;20253;-68
2022/05/26 08:31:08;;;;;;;3.63;0.93;;;;;;;19.37;54.33;101239.78;4910518;29;20236;-68
2022/05/26 08:33:37;;;;;;;1.87;0.70;;;;;;;19.36;54.52;101245.34;4909807;29;20217;-68
2022/05/26 08:36:08;;;;;;;3.00;0.60;;;;;;;19.31;54.60;101245.94;4909694;29;20224;-68
2022/05/26 08:38:36;;;;;;;2.80;0.70;;;;;;;19.28;55.22;101245.44;4906150;29;20246;-68
2022/05/26 08:41:06;;;;;;;2.50;0.80;;;;;;;19.22;55.46;101249.72;4908593;29;20617;-69
2022/05/26 08:43:44;;;;;;;1.23;0.60;;;;;;;19.20;55.57;101249.06;4905084;29;20601;-68
2022/05/26 08:46:17;;;;;;;2.23;0.73;;;;;;;19.18;55.08;101246.56;4909000;29;20663;-68
2022/05/26 08:48:56;;;;;;;2.17;0.60;;;;;;;19.17;55.15;101254.84;4907548;29;20204;-68
2022/05/26 08:51:35;;;;;;;4.50;0.90;;;;;;;19.13;54.87;101248.16;4908954;29;20209;-68
2022/05/26 08:54:06;;;;;;;1.50;0.60;;;;;;;19.12;54.71;101255.38;4905295;29;20224;-68
2022/05/26 08:56:34;;;;;;;1.87;0.53;;;;;;;19.13;53.57;101249.00;4908508;29;20927;-69
2022/05/26 08:59:10;;;;;;;2.07;0.70;;;;;;;19.15;53.06;101256.88;4907694;29;20267;-68
2022/05/26 09:01:39;;;;;;;2.07;0.60;;;;;;;19.17;52.85;101258.34;4906183;29;21401;-68
2022/05/26 09:04:10;;;;;;;1.73;0.60;;;;;;;19.22;53.03;101257.78;4909128;29;20352;-69
2022/05/26 09:15:04;;;;;;;4.10;0.73;;;;;;;19.39;52.90;101270.03;4908446;29;20201;-69
2022/05/26 09:17:36;;;;;;;2.30;0.60;;;;;;;19.42;52.65;101275.06;4908624;29;20709;-68
2022/05/26 09:20:20;;;;;;;4.67;0.70;;;;;;;19.59;52.24;101267.63;4906122;29;20225;-70
2022/05/26 09:22:48;;;;;;;1.97;0.50;;;;;;;19.71;52.33;101263.44;4908042;29;20219;-69
2022/05/26 09:25:43;;;;;;;4.00;0.60;;;;;;;19.84;52.19;101266.28;4909253;29;20212;-69
2022/05/26 09:28:11;;;;;;;4.47;0.70;;;;;;;19.87;51.22;101271.31;4906777;29;20321;-68
2022/05/26 09:30:42;;;;;;;2.67;0.67;;;;;;;19.83;51.89;101266.47;4909166;29;20303;-69
2022/05/26 09:33:35;;;;;;;2.70;0.60;;;;;;;19.86;52.10;101271.50;4906788;29;20612;-69
2022/05/26 09:36:24;;;;;;;1.73;0.70;;;;;;;19.87;52.10;101265.09;4907670;29;20221;-69
2022/05/26 09:38:53;;;;;;;3.80;0.97;;;;;;;19.87;52.85;101263.22;4906502;29;20260;-69
2022/05/26 09:41:21;;;;;;;2.50;0.80;;;;;;;19.94;52.44;101252.53;4911570;29;20487;-69
2022/05/26 09:43:52;;;;;;;3.90;1.10;;;;;;;20.04;52.54;101263.00;4907756;29;20225;-69
2022/05/26 09:46:26;;;;;;;1.57;0.80;;;;;;;20.10;52.22;101267.59;4910758;29;20260;-69
2022/05/26 09:49:00;;;;;;;3.20;0.90;;;;;;;20.16;52.29;101273.06;4910414;29;20227;-68
2022/05/26 09:51:40;;;;;;;2.67;0.90;;;;;;;20.16;52.03;101267.66;4904696;29;20208;-68
2022/05/26 09:54:23;;;;;;;3.13;0.97;;;;;;;20.19;51.71;101278.06;4904709;29;20220;-67
2022/05/26 09:56:51;;;;;;;2.77;0.63;;;;;;;20.23;51.67;101273.09;4905686;29;20354;-69
2022/05/26 09:59:28;;;;;;;2.43;0.80;;;;;;;20.24;51.54;101272.09;4909046;29;20761;-69
2022/05/26 10:02:07;;;;;;;1.97;0.50;;;;;;;20.22;52.04;101282.25;4905946;29;20279;-68
2022/05/26 10:05:04;;;;;;;3.33;0.60;;;;;;;20.17;52.01;101287.34;4911172;29;20308;-69
2022/05/26 10:07:47;;;;;;;5.57;1.00;;;;;;;20.07;52.55;101273.34;4906457;29;20210;-68
2022/05/26 10:10:23;;;;;;;2.10;0.80;;;;;;;20.02;52.67;101283.88;4909299;29;20910;-68
2022/05/26 10:13:03;;;;;;;2.90;0.70;;;;;;;20.02;52.64;101291.97;4907732;29;20288;-66
2022/05/26 10:15:49;;;;;;;2.67;0.87;;;;;;;20.02;52.73;101289.25;4908089;29;20249;-68
2022/05/26 10:18:33;;;;;;;3.27;1.03;;;;;;;19.98;52.63;101286.09;4907373;29;20233;-67
2022/05/26 10:21:09;;;;;;;3.57;0.90;;;;;;;20.01;52.24;101290.28;4905213;29;20209;-69
2022/05/26 10:24:00;;;;;;;4.70;0.60;;;;;;;19.99;51.88;101287.78;4909494;29;20271;-69
2022/05/26 10:26:38;;;;;;;2.30;0.77;;;;;;;19.92;52.35;101286.88;4912980;29;20200;-69
2022/05/26 10:29:35;;;;;;;3.23;1.20;;;;;;;19.88;52.14;101286.41;4908128;29;20866;-69
2022/05/26 10:32:18;;;;;;;3.23;0.90;;;;;;;19.85;51.74;101288.66;4914061;29;20300;-70
2022/05/26 10:35:00;;;;;;;2.43;0.90;;;;;;;19.80;52.36;101289.22;4905327;29;20343;-70
2022/05/26 10:37:44;;;;;;;2.53;0.63;;;;;;;19.82;52.51;101286.34;4912966;29;20212;-70
2022/05/26 10:40:25;;;;;;;5.30;0.83;;;;;;;19.78;52.70;101280.50;4911753;29;20935;-70
2022/05/26 10:42:57;;;;;;;2.30;0.90;;;;;;;19.79;52.74;101286.72;4913460;29;20216;-70
2022/05/26 10:45:28;;;;;;;2.30;0.57;;;;;;;19.83;52.46;101283.47;4914444;29;20200;-69
2022/05/26 10:48:01;;;;;;;3.90;0.90;;;;;;;19.87;52.61;101290.16;4911405;29;20211;-70
2022/05/26 10:50:38;;;;;;;2.13;0.67;;;;;;;19.91;52.94;101291.41;4912798;29;20481;-70
2022/05/26 10:53:15;;;;;;;1.70;0.70;;;;;;;19.92;52.89;101289.56;4912811;29;20295;-72
2022/05/26 10:55:50;;;;;;;2.13;1.10;;;;;;;19.94;52.60;101281.31;4910826;29;20475;-72
2022/05/26 10:58:23;;;;;;;2.73;0.70;;;;;;;20.01;52.33;101288.44;4914251;29;20688;-73
2022/05/26 11:01:04;;;;;;;2.57;0.80;;;;;;;20.09;52.60;101274.00;4913608;29;20855;-68
2022/05/26 11:03:42;;;;;;;1.30;0.60;;;;;;;20.23;52.24;101275.81;4913659;29;20753;-71
2022/05/26 11:06:22;;;;;;;3.50;1.10;;;;;;;20.35;51.58;101273.47;4911131;29;20224;-71
2022/05/26 11:08:55;;;;;;;3.30;1.40;;;;;;;20.33;51.57;101268.25;4911975;29;20288;-74
2022/05/26 11:11:34;;;;;;;1.27;0.63;;;;;;;20.29;50.76;101269.69;4912628;29;20678;-71
2022/05/26 11:14:07;;;;;;;1.87;0.90;;;;;;;20.55;50.48;101269.94;4909958;29;20672;-71
2022/05/26 11:19:36;;;;;;;5.50;1.10;;;;;;;20.81;50.13;101277.41;4910915;29;20256;-70
2022/05/26 11:22:06;;;;;;;1.70;0.90;;;;;;;20.83;49.68;101283.47;4909000;29;20554;-74
2022/05/26 11:24:34;;;;;;;3.53;0.80;;;;;;;20.74;49.83;101279.22;4910793;29;20287;-71
2022/05/26 11:27:08;;;;;;;3.73;1.20;;;;;;;20.73;50.02;101276.72;4911214;29;20814;-70
2022/05/26 11:29:40;;;;;;;2.60;1.07;;;;;;;20.59;50.89;101281.16;4912020;29;20244;-72
2022/05/26 11:38:05;;;;;;;2.30;0.53;;;;;;;20.44;49.84;101270.47;4910690;29;20239;-73
2022/05/26 11:40:37;;;;;;;2.20;0.90;;;;;;;20.42;50.20;101277.91;4909931;29;20224;-71
2022/05/26 11:43:07;;;;;;;2.00;0.70;;;;;;;20.43;50.29;101274.19;4913230;29;20299;-72
2022/05/26 11:45:47;;;;;;;3.63;0.90;;;;;;;20.44;50.10;101270.47;4913165;29;20220;-72
2022/05/26 11:48:41;;;;;;;2.43;0.70;;;;;;;20.48;49.98;101260.97;4906713;29;20303;-72
2022/05/26 11:51:31;;;;;;;4.47;1.43;;;;;;;20.50;50.26;101253.50;4910186;29;20961;-72
2022/05/26 11:54:00;;;;;;;2.63;0.70;;;;;;;20.55;49.97;101261.88;4916517;29;20204;-71
2022/05/26 11:56:48;;;;;;;2.77;0.73;;;;;;;20.72;48.28;101258.88;4913491;29;20300;-72
2022/05/26 11:59:46;;;;;;;3.07;1.10;;;;;;;20.87;47.73;101259.63;4914663;29;20217;-72
2022/05/26 12:02:38;;;;;;;3.63;1.20;;;;;;;21.08;47.46;101251.47;4913078;29;20264;-72
2022/05/26 12:05:43;;;;;;;3.20;0.80;;;;;;;21.21;45.91;101256.97;4919390;29;20239;-72
2022/05/26 12:08:29;;;;;;;3.23;0.90;;;;;;;21.30;45.18;101249.53;4872255;29;20456;-71
2022/05/26 12:11:00;;;;;;;1.43;0.80;;;;;;;21.36;46.39;101264.97;4908437;29;20236;-68
2022/05/26 12:13:34;;;;;;;3.07;0.50;;;;;;;21.44;44.53;101266.66;4906803;29;20206;-71
2022/05/26 12:16:35;;;;;;;3.30;0.90;;;;;;;21.38;43.94;101258.31;4909158;29;20674;-71
2022/05/26 12:19:05;;;;;;;1.83;0.80;;;;;;;21.43;44.49;101254.19;4909574;29;20710;-73
2022/05/26 12:21:43;;;;;;;1.33;0.70;;;;;;;21.39;43.99;101243.78;4911037;29;20241;-74
2022/05/26 12:25:03;;;;;;;1.67;0.57;;;;;;;21.38;44.01;101238.59;4913859;29;20210;-74
2022/05/26 12:28:00;;;;;;;4.40;0.90;;;;;;;21.39;44.03;101241.09;4917251;29;20236;-74
2022/05/26 12:31:21;;;;;;;3.00;0.80;;;;;;;21.49;45.02;101238.03;4882687;29;20214;-71